Flight Track Log - Related Links

Times and Time Zones

All times are in EDT time to prevent confusion due to time zone crossing. See the N421VA flight status page for this flight to view local times or setup timezone preferences in your user account.


Time Position Orientation Groundspeed Altitude Reporting Facility
EDT Latitude Longitude Course Direction KTS MPH feet Rate Location/Type
Sun 03:49:33 PM 32.2714 -80.6197 23° Northeast 178 205 3,200  Level Jacksonville Center
Sun 03:50:33 PM 32.3067 -80.6042 20° North 159 183 4,000 900 Climbing Jacksonville Center
Sun 03:51:33 PM 32.3522 -80.5883 16° North 159 183 5,000 900 Climbing Jacksonville Center
Sun 03:52:33 PM 32.3917 -80.5678 24° Northeast 152 175 5,800 850 Climbing Jacksonville Center
Sun 03:53:00 PM 32.4911 -80.7737 342° North  Level FlightAware Approximate
Sun 03:53:33 PM 32.4289 -80.5519 20° North 147 169 6,700  Level Jacksonville Center
Sun 03:54:00 PM 32.5466 -80.7893 350° North  Level FlightAware Approximate
Sun 03:54:33 PM 32.4722 -80.5311 22° Northeast 152 175 7,800  Level Jacksonville Center
Sun 03:55:33 PM 32.5094 -80.5128 23° Northeast 152 175 8,600 900 Climbing Jacksonville Center
Sun 03:56:33 PM 32.5550 -80.4894 23° Northeast 152 175 9,600 950 Climbing Jacksonville Center
Sun 03:57:33 PM 32.5942 -80.4664 26° Northeast 152 175 10,500 900 Climbing Jacksonville Center
Sun 03:58:33 PM 32.6378 -80.4453 22° Northeast 152 175 11,400 750 Climbing Jacksonville Center
Sun 03:59:33 PM 32.6811 -80.4219 24° Northeast 159 183 12,000 800 Climbing Jacksonville Center
Sun 04:00:33 PM 32.7264 -80.3986 23° Northeast 166 191 13,000 950 Climbing Jacksonville Center
Sun 04:01:33 PM 32.7700 -80.3775 22° Northeast 171 197 13,900 900 Climbing Jacksonville Center
Sun 04:02:33 PM 32.8197 -80.3589 17° North 171 197 14,800 850 Climbing Jacksonville Center
Sun 04:03:33 PM 32.8650 -80.3378 21° North 171 197 15,600 850 Climbing Jacksonville Center
Sun 04:04:33 PM 32.9147 -80.3142 22° Northeast 171 197 16,500 850 Climbing Jacksonville Center
Sun 04:05:33 PM 32.9603 -80.2931 21° North 178 205 17,300 800 Climbing Jacksonville Center
Sun 04:06:33 PM 33.0017 -80.2719 23° Northeast 176 203 18,100 800 Climbing Jacksonville Center
Sun 04:07:33 PM 33.0572 -80.2406 25° Northeast 182 209 18,900 800 Climbing Jacksonville Center
Sun 04:08:33 PM 33.1028 -80.2169 23° Northeast 182 209 19,700 750 Climbing Jacksonville Center
Sun 04:09:33 PM 33.1481 -80.1933 24° Northeast 182 209 20,400 700 Climbing Jacksonville Center
Sun 04:10:33 PM 33.1956 -80.1694 23° Northeast 182 209 21,100 300 Climbing Jacksonville Center
Sun 04:11:33 PM 33.2514 -80.1456 20° North 194 223 21,000 -50 Descending Jacksonville Center
Sun 04:12:33 PM 33.3072 -80.1164 24° Northeast 205 236 21,000  Level Jacksonville Center
Sun 04:13:33 PM 33.3647 -80.0847 25° Northeast 211 243 21,000  Level Jacksonville Center
Sun 04:14:33 PM 33.4247 -80.0556 22° Northeast 211 243 21,000 50 Level Jacksonville Center
Sun 04:15:33 PM 33.4761 -80.0214 29° Northeast 211 243 21,100  Climbing Jacksonville Center
Sun 04:16:33 PM 33.5317 -79.9922 24° Northeast 211 243 21,000  Descending Jacksonville Center
Sun 04:17:33 PM 33.5917 -79.9653 21° North 216 249 21,100 50 Climbing Jacksonville Center
Sun 04:18:33 PM 33.6514 -79.9358 22° Northeast 222 255 21,100 -50 Level Jacksonville Center
Sun 04:19:33 PM 33.7139 -79.9239 North 227 261 21,000 -50 Descending Jacksonville Center
Sun 04:20:33 PM 33.7686 -79.9494 339° North 210 242 21,000  Level Jacksonville Center
Sun 04:21:33 PM 33.8194 -79.9828 331° Northwest 203 234 21,000  Level Jacksonville Center
Sun 04:22:33 PM 33.8722 -80.0086 338° Northwest 208 239 21,000 -50 Level Jacksonville Center
Sun 04:23:33 PM 33.9272 -80.0369 337° Northwest 208 239 20,900  Descending Jacksonville Center
Sun 04:24:33 PM 33.9800 -80.0703 332° Northwest 208 239 21,000 100 Climbing Jacksonville Center
Sun 04:25:33 PM 34.0308 -80.0986 335° Northwest 208 239 21,100 50 Climbing Jacksonville Center
Sun 04:26:33 PM 34.0836 -80.1269 336° Northwest 208 239 21,100 -50 Level Jacksonville Center
Sun 04:27:33 PM 34.1386 -80.1603 333° Northwest 208 239 21,000 -50 Descending Jacksonville Center
Sun 04:28:33 PM 34.1933 -80.1836 341° North 208 239 21,000 36 Level Jacksonville Center
Sun 04:30:20 PM 34.2864 -80.2375 334° Northwest 199 229 21,100  Climbing Atlanta Center
Sun 04:31:20 PM 34.3372 -80.2653 336° Northwest 199 229 21,000 -50 Descending Atlanta Center
Sun 04:32:20 PM 34.3864 -80.3033 327° Northwest 204 235 21,000  Level Atlanta Center
Sun 04:33:20 PM 34.4458 -80.3286 341° North 204 235 21,000 50 Level Atlanta Center
Sun 04:34:20 PM 34.4967 -80.3617 332° Northwest 204 235 21,100 50 Climbing Atlanta Center
Sun 04:35:20 PM 34.5458 -80.3972 329° Northwest 204 235 21,100 -50 Level Atlanta Center
Sun 04:36:20 PM 34.6028 -80.4200 342° North 204 235 21,000 -50 Descending Atlanta Center
Sun 04:37:20 PM 34.6600 -80.4503 336° Northwest 219 252 21,000 50 Level Atlanta Center
Sun 04:38:20 PM 34.7214 -80.4731 343° North 219 252 21,100  Climbing Atlanta Center
Sun 04:39:20 PM 34.7744 -80.5036 335° Northwest 213 245 21,000 -50 Descending Atlanta Center
Sun 04:40:20 PM 34.8314 -80.5317 338° Northwest 213 245 21,000  Level Atlanta Center
Sun 04:41:20 PM 34.8867 -80.5647 334° Northwest 213 245 21,000 50 Level Atlanta Center
Sun 04:42:20 PM 34.9333 -80.5956 332° Northwest 220 253 21,100 50 Climbing Atlanta Center
Sun 04:43:20 PM 34.9906 -80.6236 338° Northwest 220 253 21,100  Level Atlanta Center
Sun 04:44:20 PM 35.0458 -80.6569 334° Northwest 220 253 21,100 -50 Level Atlanta Center
Sun 04:45:20 PM 35.1031 -80.6928 333° Northwest 228 262 21,000  Descending Atlanta Center
Sun 04:46:20 PM 35.1603 -80.7208 338° Northwest 222 255 21,100  Climbing Atlanta Center
Sun 04:47:20 PM 35.2172 -80.7467 340° North 222 255 21,000 -50 Descending Atlanta Center
Sun 04:48:20 PM 35.2822 -80.7592 351° North 222 255 21,000 -50 Level Atlanta Center
Sun 04:49:20 PM 35.3511 -80.7642 357° North 222 255 20,900 50 Descending Atlanta Center
Sun 04:50:20 PM 35.4158 -80.7589 North 227 261 21,100  Climbing Atlanta Center
Sun 04:51:20 PM 35.4828 -80.7667 355° North 234 269 20,900 -100 Descending Atlanta Center
Sun 04:52:20 PM 35.5475 -80.7692 358° North 234 269 20,900  Level Atlanta Center
Sun 04:53:20 PM 35.6100 -80.7717 358° North 234 269 20,900  Level Atlanta Center
Sun 04:54:20 PM 35.6728 -80.7794 354° North 234 269 20,900  Level Atlanta Center
Sun 04:55:20 PM 35.7356 -80.7819 358° North 229 264 20,900  Level Atlanta Center
Sun 04:56:20 PM 35.8003 -80.7844 358° North 229 264 20,900  Level Atlanta Center
Sun 04:57:20 PM 35.8650 -80.7844 360° North 235 270 20,900  Level Atlanta Center
Sun 04:58:20 PM 35.9297 -80.7869 358° North 235 270 20,900  Level Atlanta Center
Sun 04:59:20 PM 35.9922 -80.7872 360° North 235 270 20,900  Level Atlanta Center
Sun 05:00:20 PM 36.0550 -80.7897 358° North 235 270 20,900  Level Atlanta Center
Sun 05:01:20 PM 36.1175 -80.7897 360° North 230 265 20,900  Level Atlanta Center
Sun 05:02:20 PM 36.1739 -80.7900 360° North 230 265 20,900  Level Atlanta Center
Sun 05:03:20 PM 36.2383 -80.7900 360° North 230 265 20,900  Level Atlanta Center
Sun 05:04:20 PM 36.2989 -80.7928 358° North 230 265 20,900 50 Level Atlanta Center
Sun 05:05:20 PM 36.3558 -80.8086 347° North 217 250 21,000  Climbing Atlanta Center
Sun 05:06:20 PM 36.3944 -80.8533 317° Northwest 195 224 20,900 -150 Descending Atlanta Center
Sun 05:07:20 PM 36.4394 -80.8956 323° Northwest 196 226 20,700 -200 Descending Atlanta Center
Sun 05:08:20 PM 36.4861 -80.9350 326° Northwest 204 235 20,500 -350 Descending Atlanta Center
Sun 05:09:20 PM 36.5456 -80.9714 334° Northwest 209 241 20,000 -250 Descending Atlanta Center
Sun 05:10:20 PM 36.6025 -80.9978 340° North 214 246 20,000  Level Atlanta Center
Sun 05:11:20 PM 36.6492 -81.0322 329° Northwest 209 241 20,000  Level Atlanta Center
Sun 05:12:20 PM 36.6939 -81.0744 323° Northwest 202 232 20,000  Level Atlanta Center
Sun 05:13:20 PM 36.7408 -81.1167 324° Northwest 196 226 20,000  Level Atlanta Center
Sun 05:14:20 PM 36.7794 -81.1594 318° Northwest 196 226 20,000  Level Atlanta Center
Sun 05:15:20 PM 36.8242 -81.1967 326° Northwest 196 226 20,000  Level Atlanta Center
Sun 05:16:20 PM 36.8689 -81.2367 324° Northwest 202 232 20,000  Level Atlanta Center
Sun 05:17:20 PM 36.9156 -81.2792 324° Northwest 207 238 20,000  Level Atlanta Center
Sun 05:19:15 PM 37.0181 -81.3500 331° Northwest 212 244 20,000  Level Indianapolis Center
Sun 05:20:16 PM 37.0731 -81.3897 330° Northwest 209 241 20,000  Level Indianapolis Center
Sun 05:21:18 PM 37.1233 -81.4278 329° Northwest 210 242 20,000  Level Indianapolis Center
Sun 05:22:20 PM 37.1703 -81.4686 325° Northwest 206 237 20,000  Level Indianapolis Center
Sun 05:23:22 PM 37.2178 -81.5117 324° Northwest 210 242 20,000  Level Indianapolis Center
Sun 05:24:23 PM 37.2686 -81.5500 329° Northwest 213 245 20,000  Level Indianapolis Center
Sun 05:25:25 PM 37.3306 -81.5906 333° Northwest 213 245 20,000  Level Indianapolis Center
Sun 05:26:27 PM 37.3814 -81.6319 327° Northwest 215 247 20,000 -339 Level Indianapolis Center
Sun 05:27:29 PM 37.4311 -81.6778 324° Northwest 221 254 19,300 -629 Descending Indianapolis Center
Sun 05:28:31 PM 37.4889 -81.7253 327° Northwest 243 280 18,700 -629 Descending Indianapolis Center
Sun 05:29:33 PM 37.5472 -81.7636 332° Northwest 236 272 18,000 -488 Descending Indianapolis Center
Sun 05:30:34 PM 37.6019 -81.8061 328° Northwest 231 266 17,700 -439 Descending Indianapolis Center
Sun 05:31:36 PM 37.6622 -81.8614 324° Northwest 228 262 17,100 -290 Descending Indianapolis Center
Sun 05:32:38 PM 37.7119 -81.9053 325° Northwest 221 254 17,100  Level Indianapolis Center
Sun 05:33:40 PM 37.7608 -81.9447 327° Northwest 211 243 17,100  Level Indianapolis Center
Sun 05:34:42 PM 37.8089 -81.9869 325° Northwest 210 242 17,100 -48 Level Indianapolis Center
Sun 05:35:44 PM 37.8639 -82.0328 327° Northwest 214 246 17,000 -585 Descending Indianapolis Center
Sun 05:36:45 PM 37.9158 -82.0775 326° Northwest 223 257 15,900 -927 Descending Indianapolis Center
Sun 05:37:47 PM 37.9711 -82.1267 325° Northwest 240 276 15,100 -871 Descending Indianapolis Center
Sun 05:38:49 PM 38.0322 -82.1769 327° Northwest 245 282 14,100 -919 Descending Indianapolis Center
Sun 05:39:51 PM 38.0886 -82.2219 328° Northwest 241 277 13,200 -871 Descending Indianapolis Center
Sun 05:40:53 PM 38.1425 -82.2650 328° Northwest 242 278 12,300 -871 Descending Indianapolis Center
Sun 05:41:55 PM 38.1969 -82.3072 329° Northwest 235 270 11,400 -919 Descending Indianapolis Center
Sun 05:42:57 PM 38.2769 -82.3097 359° North 234 269 10,400 -919 Descending Indianapolis Center
Sun 05:43:59 PM 38.3428 -82.3167 355° North 235 270 9,500 -823 Descending Indianapolis Center
Sun 05:45:01 PM 38.4069 -82.3203 357° North 231 266 8,700 -829 Descending Indianapolis Center
Sun 05:46:02 PM 38.4697 -82.3236 358° North 224 258 7,800 -878 Descending Indianapolis Center
Sun 05:47:04 PM 38.5306 -82.3286 356° North 219 252 6,900 -968 Descending Indianapolis Center
Sun 05:48:06 PM 38.5756 -82.3719 323° Northwest 212 244 5,800 -1,016 Descending Indianapolis Center
Sun 05:49:08 PM 38.6039 -82.4383 299° West 211 243 4,800 -387 Descending Indianapolis Center
Sun 05:50:10 PM 38.6403 -82.5044 305° West 192 221 5,000 -290 Climbing Indianapolis Center
Sun 05:51:12 PM 38.6717 -82.5628 305° West 193 222 4,200 -726 Descending Indianapolis Center
Sun 05:52:14 PM 38.7050 -82.6228 305° West 203 234 3,500 -488 Descending Indianapolis Center
Sun 05:53:15 PM 38.7506 -82.6783 316° Northwest 206 237 3,200 -295 Descending Indianapolis Center
Sun 05:55:00 PM 38.8069 -82.7838 304° West  Level FlightAware Approximate
Sun 06:02:00 PM 38.8333 -82.8333 308° West  Level FlightAware Approximate
Sun 06:03:00 PM 38.8405 -82.8473 308° West  Level Estimated

Login

Don't have an account? Register now (free) for customized features, flight alerts, and more!